createdAt,value
2022-10-19T00:01:59.635Z,103305.84
2022-10-19T00:07:01.138Z,103308.03
2022-10-19T00:12:02.678Z,103309.09
2022-10-19T00:17:04.189Z,103309.78
2022-10-19T00:22:07.125Z,103303.88
2022-10-19T00:27:10.751Z,103297.81
2022-10-19T00:32:12.239Z,103301.41
2022-10-19T00:37:13.893Z,103307.22
2022-10-19T00:42:15.378Z,103324.22
2022-10-19T00:47:20.930Z,103324.13
2022-10-19T00:52:24.667Z,103319.69
2022-10-19T00:57:29.480Z,103308.06
2022-10-19T01:02:31.270Z,103304.47
2022-10-19T01:07:33.487Z,103298.06
2022-10-19T01:12:47.829Z,103294.00
2022-10-19T01:18:26.865Z,103278.59
2022-10-19T01:23:53.308Z,103282.38
2022-10-19T01:28:57.814Z,103281.34
2022-10-19T01:34:25.333Z,103280.09
2022-10-19T01:39:44.209Z,103274.63
2022-10-19T01:44:55.690Z,103275.00
2022-10-19T01:50:03.283Z,103259.72
2022-10-19T01:55:05.475Z,103260.94
2022-10-19T02:00:10.974Z,103258.94
2022-10-19T02:05:18.867Z,103246.03
2022-10-19T02:10:21.781Z,103258.00
2022-10-19T02:15:27.087Z,103264.06
2022-10-19T02:20:29.172Z,103269.06
2022-10-19T02:25:31.060Z,103282.47
2022-10-19T02:30:32.683Z,103271.47
2022-10-19T02:35:34.650Z,103272.28
2022-10-19T02:40:42.883Z,103274.78
2022-10-19T02:45:54.922Z,103277.50
2022-10-19T02:50:56.458Z,103276.94
2022-10-19T02:55:57.997Z,103267.31
2022-10-19T03:00:59.572Z,103274.25
2022-10-19T03:06:01.056Z,103272.09
2022-10-19T03:11:02.590Z,103271.16
2022-10-19T03:16:09.918Z,103279.06
2022-10-19T03:21:13.245Z,103286.81
2022-10-19T03:26:16.991Z,103286.84
2022-10-19T03:31:19.114Z,103278.28
2022-10-19T03:36:24.132Z,103271.91
2022-10-19T03:41:31.168Z,103264.13
2022-10-19T03:46:33.094Z,103253.94
2022-10-19T03:51:35.948Z,103256.03
2022-10-19T03:56:38.077Z,103261.13
2022-10-19T04:01:42.723Z,103252.16
2022-10-19T04:06:46.275Z,103244.09
2022-10-19T04:11:49.102Z,103258.44
2022-10-19T04:16:50.650Z,103248.28
2022-10-19T04:21:52.116Z,103250.34
2022-10-19T04:26:55.154Z,103240.19
2022-10-19T04:31:56.638Z,103245.88
2022-10-19T04:36:59.538Z,103245.56
2022-10-19T04:42:01.292Z,103242.56
2022-10-19T04:47:02.827Z,103230.16
2022-10-19T04:52:04.428Z,103230.00
2022-10-19T04:57:05.906Z,103225.53
2022-10-19T05:02:08.384Z,103220.44
2022-10-19T05:07:09.910Z,103221.03
2022-10-19T05:12:11.595Z,103223.59
2022-10-19T05:17:13.156Z,103213.72
2022-10-19T05:22:14.638Z,103217.75
2022-10-19T05:27:16.312Z,103212.81
2022-10-19T05:32:17.843Z,103217.16
2022-10-19T05:37:19.345Z,103212.22
2022-10-19T05:42:21.028Z,103221.47
2022-10-19T05:47:24.386Z,103221.47
2022-10-19T05:52:27.944Z,103229.66
2022-10-19T05:57:32.288Z,103238.59
2022-10-19T06:02:33.931Z,103238.28
2022-10-19T06:07:35.743Z,103239.91
2022-10-19T06:12:37.727Z,103243.69
2022-10-19T06:17:39.282Z,103243.72
2022-10-19T06:22:42.282Z,103237.19
2022-10-19T06:27:43.769Z,103230.78
2022-10-19T06:32:45.311Z,103248.16
2022-10-19T06:37:46.836Z,103252.38
2022-10-19T06:42:49.498Z,103257.19
2022-10-19T06:47:51.070Z,103264.41
2022-10-19T06:52:53.743Z,103270.41
2022-10-19T06:58:01.663Z,103268.91
2022-10-19T07:03:03.223Z,103291.06
2022-10-19T07:08:04.910Z,103288.94
2022-10-19T07:18:16.032Z,103300.47
2022-10-19T07:23:17.517Z,103296.81
2022-10-19T07:28:20.173Z,103304.47
2022-10-19T07:33:22.241Z,103316.03
2022-10-19T07:38:23.754Z,103338.72
2022-10-19T07:43:25.269Z,103342.22
2022-10-19T07:48:35.462Z,103346.06
2022-10-19T07:53:37.719Z,103371.44
2022-10-19T07:59:06.984Z,103383.03
2022-10-19T08:04:49.040Z,103378.41
2022-10-19T08:14:57.830Z,103374.03
2022-10-19T08:19:59.556Z,103361.94
2022-10-19T08:25:01.269Z,103357.56
2022-10-19T08:30:05.850Z,103323.88
2022-10-19T08:35:10.665Z,103302.38
2022-10-19T08:40:21.093Z,103277.09
2022-10-19T08:45:32.537Z,103258.34
2022-10-19T08:50:34.008Z,103244.94
2022-10-19T08:55:48.364Z,103226.19
2022-10-19T09:01:02.485Z,103177.75
2022-10-19T09:06:20.047Z,103163.09
2022-10-19T09:11:32.808Z,103144.66
2022-10-19T09:16:35.185Z,103127.16
2022-10-19T09:21:49.021Z,103075.06
2022-10-19T09:26:56.321Z,103009.66
2022-10-19T09:32:03.321Z,102993.69
2022-10-19T09:37:06.008Z,102930.91
2022-10-19T09:42:33.024Z,102893.31
2022-10-19T09:47:40.520Z,102862.56
2022-10-19T09:53:15.928Z,102837.97
2022-10-19T09:58:27.005Z,102797.31
2022-10-19T10:03:40.317Z,102788.16
2022-10-19T10:08:48.716Z,102759.56
2022-10-19T10:13:53.041Z,102767.75
2022-10-19T10:19:00.915Z,102762.84
2022-10-19T10:24:12.716Z,102759.31
2022-10-19T10:29:21.793Z,102757.81
2022-10-19T10:35:00.957Z,102739.97
2022-10-19T10:40:23.256Z,102730.47
2022-10-19T10:45:53.113Z,102714.75
2022-10-19T10:50:55.534Z,102704.56
2022-10-19T10:55:57.650Z,102707.75
2022-10-19T11:01:07.774Z,102692.78
2022-10-19T11:06:10.091Z,102689.47
2022-10-19T11:11:23.884Z,102700.22
2022-10-19T11:16:41.218Z,102698.31
2022-10-19T11:21:51.810Z,102676.22
2022-10-19T11:27:29.849Z,102668.16
2022-10-19T11:32:58.369Z,102671.66
2022-10-19T11:38:19.516Z,102658.63
2022-10-19T11:43:43.167Z,102651.19
2022-10-19T11:49:23.272Z,102638.72
2022-10-19T11:54:50.115Z,102630.75
2022-10-19T12:00:27.321Z,102602.63
2022-10-19T12:05:39.205Z,102575.53
2022-10-19T12:11:18.768Z,102589.78
2022-10-19T12:16:21.591Z,102573.72
2022-10-19T12:21:29.410Z,102581.75
2022-10-19T12:26:36.461Z,102568.28
2022-10-19T12:31:38.471Z,102560.75
2022-10-19T12:36:52.494Z,102548.47
2022-10-19T12:42:13.648Z,102533.16
2022-10-19T12:47:23.739Z,102525.22
2022-10-19T12:52:52.827Z,102521.66
2022-10-19T12:58:21.564Z,102522.19
2022-10-19T13:03:27.678Z,102520.53
2022-10-19T13:08:38.910Z,102499.22
2022-10-19T13:14:02.653Z,102490.63
2022-10-19T13:19:18.680Z,102473.72
2022-10-19T13:24:25.927Z,102471.31
2022-10-19T13:29:41.114Z,102464.38
2022-10-19T13:34:45.407Z,102459.78
2022-10-19T13:39:47.455Z,102453.25
2022-10-19T13:44:52.534Z,102447.72
2022-10-19T13:50:55.783Z,102439.94
2022-10-19T13:56:17.292Z,102455.91
2022-10-19T14:01:34.071Z,102441.19
2022-10-19T14:06:54.602Z,102442.91
2022-10-19T14:12:06.934Z,102421.97
2022-10-19T14:22:23.289Z,102417.78
2022-10-19T14:27:25.206Z,102420.91
2022-10-19T14:32:28.686Z,102420.72
2022-10-19T14:37:30.713Z,102419.25
2022-10-19T14:42:40.828Z,102418.91
2022-10-19T14:47:55.547Z,102414.13
2022-10-19T14:53:06.188Z,102414.63
2022-10-19T14:58:15.582Z,102413.00
2022-10-19T15:03:24.253Z,102406.94
2022-10-19T15:08:49.561Z,102403.38
2022-10-19T15:14:16.091Z,102402.78
2022-10-19T15:19:30.429Z,102395.34
2022-10-19T15:24:32.098Z,102395.38
2022-10-19T15:29:34.698Z,102397.28
2022-10-19T15:34:36.378Z,102394.47
2022-10-19T15:39:42.167Z,102395.69
2022-10-19T15:44:46.370Z,102381.38
2022-10-19T15:49:56.941Z,102379.38
2022-10-19T15:55:00.124Z,102383.47
2022-10-19T16:00:11.393Z,102375.84
2022-10-19T16:05:12.928Z,102368.50
2022-10-19T16:10:19.411Z,102357.94
2022-10-19T16:15:23.143Z,102351.50
2022-10-19T16:20:29.127Z,102355.72
2022-10-19T16:25:30.798Z,102361.97
2022-10-19T16:30:32.565Z,102359.47
2022-10-19T16:35:34.263Z,102358.50
2022-10-19T16:40:35.784Z,102358.22
2022-10-19T16:45:42.369Z,102350.69
2022-10-19T16:50:46.179Z,102345.13
2022-10-19T16:55:47.689Z,102331.81
2022-10-19T17:00:49.173Z,102331.63
2022-10-19T17:05:50.680Z,102342.19
2022-10-19T17:10:54.955Z,102350.72
2022-10-19T17:15:56.413Z,102335.25
2022-10-19T17:21:09.807Z,102340.66
2022-10-19T17:26:12.068Z,102332.44
2022-10-19T17:31:14.672Z,102327.06
2022-10-19T17:36:20.444Z,102329.06
2022-10-19T17:41:22.796Z,102333.50
2022-10-19T17:46:28.827Z,102338.63
2022-10-19T17:51:32.979Z,102329.81
2022-10-19T17:56:38.423Z,102340.28
2022-10-19T18:01:40.105Z,102336.88
2022-10-19T18:06:41.628Z,102329.31
2022-10-19T18:11:44.963Z,102324.34
2022-10-19T18:16:47.267Z,102324.16
2022-10-19T18:21:49.181Z,102327.09
2022-10-19T18:26:51.519Z,102336.41
2022-10-19T18:31:53.494Z,102319.75
2022-10-19T18:36:55.337Z,102312.25
2022-10-19T18:41:56.867Z,102298.59
2022-10-19T18:46:59.344Z,102303.97
2022-10-19T18:52:00.997Z,102322.56
2022-10-19T18:57:02.570Z,102325.41
2022-10-19T19:02:04.108Z,102323.94
2022-10-19T19:07:05.720Z,102325.22
2022-10-19T19:12:07.252Z,102317.44
2022-10-19T19:17:08.739Z,102313.63
2022-10-19T19:22:10.278Z,102296.88
2022-10-19T19:27:11.810Z,102300.25
2022-10-19T19:32:13.277Z,102291.88
2022-10-19T19:37:14.807Z,102288.66
2022-10-19T19:42:16.516Z,102274.81
2022-10-19T19:47:19.424Z,102270.16
2022-10-19T19:52:20.907Z,102264.84
2022-10-19T19:57:22.625Z,102273.25
2022-10-19T20:02:24.184Z,102273.69
2022-10-19T20:07:27.042Z,102276.56
2022-10-19T20:12:29.272Z,102268.38
2022-10-19T20:17:30.762Z,102256.03
2022-10-19T20:22:32.408Z,102263.97
2022-10-19T20:27:37.505Z,102266.97
2022-10-19T20:32:39.163Z,102272.13
2022-10-19T20:37:40.762Z,102255.13
2022-10-19T20:42:43.862Z,102245.63
2022-10-19T20:47:45.320Z,102247.50
2022-10-19T20:52:46.882Z,102243.78
2022-10-19T20:57:48.849Z,102285.94
2022-10-19T21:02:50.382Z,102292.28
2022-10-19T21:07:52.889Z,102295.47
2022-10-19T21:12:54.394Z,102286.81
2022-10-19T21:17:55.927Z,102285.34
2022-10-19T21:22:58.361Z,102272.63
2022-10-19T21:27:59.823Z,102277.50
2022-10-19T21:33:01.375Z,102265.88
2022-10-19T21:38:02.978Z,102263.03
2022-10-19T21:43:04.634Z,102259.91
2022-10-19T21:48:06.291Z,102264.41
2022-10-19T21:53:07.758Z,102265.19
2022-10-19T21:58:09.253Z,102264.94
2022-10-19T22:08:16.669Z,102273.03
2022-10-19T22:13:21.611Z,102272.84
2022-10-19T22:18:23.114Z,102262.53
2022-10-19T22:23:24.660Z,102259.78
2022-10-19T22:28:29.607Z,102254.88
2022-10-19T22:33:31.131Z,102259.53
2022-10-19T22:38:33.405Z,102253.03
2022-10-19T22:43:37.317Z,102252.84
2022-10-19T22:48:41.158Z,102256.38
2022-10-19T22:54:08.052Z,102256.19
2022-10-19T22:59:09.881Z,102235.13
2022-10-19T23:04:15.331Z,102237.56
2022-10-19T23:09:17.058Z,102239.06
2022-10-19T23:14:18.746Z,102226.06
2022-10-19T23:19:20.241Z,102223.81
2022-10-19T23:24:21.753Z,102227.28
2022-10-19T23:29:23.520Z,102220.16
2022-10-19T23:34:25.097Z,102209.16
2022-10-19T23:39:26.647Z,102199.41
2022-10-19T23:44:28.115Z,102194.41
2022-10-19T23:49:29.606Z,102194.41
2022-10-19T23:54:31.071Z,102180.59
2022-10-19T23:59:32.821Z,102189.38
